createdAt,value
2019-06-27T00:01:43.946Z,18.50
2019-06-27T00:04:12.812Z,19.37
2019-06-27T00:06:41.654Z,19.00
2019-06-27T00:09:11.856Z,19.83
2019-06-27T00:11:40.585Z,19.97
2019-06-27T00:14:09.639Z,19.03
2019-06-27T00:16:38.494Z,18.57
2019-06-27T00:19:07.379Z,16.53
2019-06-27T00:21:36.141Z,16.50
2019-06-27T00:24:05.028Z,19.03
2019-06-27T00:26:36.755Z,17.83
2019-06-27T00:29:05.634Z,18.40
2019-06-27T00:31:34.412Z,19.60
2019-06-27T00:34:03.386Z,19.70
2019-06-27T00:36:32.218Z,17.93
2019-06-27T00:39:01.182Z,18.63
2019-06-27T00:41:30.516Z,20.50
2019-06-27T00:44:01.722Z,19.07
2019-06-27T00:46:30.762Z,19.80
2019-06-27T00:48:59.553Z,19.27
2019-06-27T00:51:28.827Z,19.00
2019-06-27T00:53:57.847Z,19.50
2019-06-27T00:56:26.740Z,19.07
2019-06-27T00:58:55.628Z,20.10
2019-06-27T01:01:24.743Z,18.57
2019-06-27T01:03:53.819Z,19.07
2019-06-27T01:06:22.625Z,18.60
2019-06-27T01:08:51.603Z,17.90
2019-06-27T01:11:20.462Z,20.07
2019-06-27T01:13:49.386Z,17.63
2019-06-27T01:16:18.280Z,18.20
2019-06-27T01:18:47.039Z,18.33
2019-06-27T01:21:15.930Z,19.03
2019-06-27T01:23:45.197Z,18.47
2019-06-27T01:26:14.073Z,18.87
2019-06-27T01:28:42.803Z,18.63
2019-06-27T01:31:11.779Z,20.57
2019-06-27T01:33:40.694Z,19.33
2019-06-27T01:36:09.426Z,19.80
2019-06-27T01:38:38.227Z,17.77
2019-06-27T01:41:07.133Z,18.80
2019-06-27T01:43:35.955Z,18.90
2019-06-27T01:46:05.112Z,17.33
2019-06-27T01:48:34.145Z,17.90
2019-06-27T01:51:03.171Z,16.87
2019-06-27T01:53:32.027Z,18.53
2019-06-27T01:56:01.412Z,18.00
2019-06-27T01:58:30.461Z,16.70
2019-06-27T02:00:59.177Z,17.93
2019-06-27T02:03:28.043Z,18.73
2019-06-27T02:05:56.932Z,17.83
2019-06-27T02:08:26.034Z,16.37
2019-06-27T02:10:55.133Z,16.40
2019-06-27T02:13:24.018Z,17.37
2019-06-27T02:15:52.935Z,20.57
2019-06-27T02:18:21.780Z,16.47
2019-06-27T02:20:50.614Z,17.43
2019-06-27T02:23:19.789Z,17.43
2019-06-27T02:25:48.559Z,18.47
2019-06-27T02:28:17.570Z,16.43
2019-06-27T02:30:46.669Z,17.10
2019-06-27T02:33:15.766Z,17.73
2019-06-27T02:35:44.629Z,19.03
2019-06-27T02:38:13.545Z,17.33
2019-06-27T02:40:42.441Z,18.90
2019-06-27T02:43:11.159Z,18.40
2019-06-27T02:45:40.021Z,17.87
2019-06-27T02:48:08.928Z,18.67
2019-06-27T02:50:37.815Z,18.13
2019-06-27T02:53:06.547Z,16.87
2019-06-27T02:55:36.107Z,17.30
2019-06-27T02:58:27.546Z,17.63
2019-06-27T03:00:35.394Z,17.47
2019-06-27T03:03:04.560Z,17.83
2019-06-27T03:05:33.332Z,18.43
2019-06-27T03:08:02.392Z,19.80
2019-06-27T03:10:31.084Z,21.03
2019-06-27T03:12:59.946Z,22.80
2019-06-27T03:15:28.683Z,21.50
2019-06-27T03:17:57.379Z,20.17
2019-06-27T03:20:26.201Z,20.00
2019-06-27T03:22:55.757Z,20.40
2019-06-27T03:25:24.653Z,20.33
2019-06-27T03:27:53.397Z,19.57
2019-06-27T03:30:24.285Z,20.87
2019-06-27T03:32:53.161Z,19.63
2019-06-27T03:35:21.958Z,21.93
2019-06-27T03:37:50.720Z,21.60
2019-06-27T03:40:19.530Z,20.43
2019-06-27T03:42:48.217Z,19.50
2019-06-27T03:45:17.107Z,20.67
2019-06-27T03:47:46.410Z,19.87
2019-06-27T03:50:15.775Z,19.20
2019-06-27T03:52:44.812Z,19.60
2019-06-27T03:55:13.707Z,21.37
2019-06-27T03:57:45.380Z,19.17
2019-06-27T04:00:25.603Z,18.93
2019-06-27T04:02:54.372Z,17.80
2019-06-27T04:05:23.191Z,16.73
2019-06-27T04:07:52.084Z,16.67
2019-06-27T04:10:20.937Z,16.80
2019-06-27T04:12:49.874Z,16.37
2019-06-27T04:15:18.964Z,18.10
2019-06-27T04:17:47.960Z,15.40
2019-06-27T04:20:16.822Z,17.37
2019-06-27T04:22:45.951Z,18.23
2019-06-27T04:25:14.690Z,15.77
2019-06-27T04:27:43.731Z,14.93
2019-06-27T04:30:12.984Z,22.03
2019-06-27T04:32:41.922Z,15.23
2019-06-27T04:35:10.954Z,16.57
2019-06-27T04:37:39.746Z,16.80
2019-06-27T04:40:08.923Z,20.23
2019-06-27T04:42:37.770Z,17.80
2019-06-27T04:45:10.482Z,16.87
2019-06-27T04:47:39.120Z,17.10
2019-06-27T04:50:08.672Z,17.93
2019-06-27T04:52:38.481Z,18.23
2019-06-27T04:55:07.832Z,18.17
2019-06-27T04:57:36.999Z,19.77
2019-06-27T05:00:06.230Z,18.00
2019-06-27T05:02:35.012Z,17.77
2019-06-27T05:05:04.584Z,17.57
2019-06-27T05:07:33.263Z,17.53
2019-06-27T05:10:02.261Z,17.03
2019-06-27T05:12:30.985Z,18.50
2019-06-27T05:14:59.731Z,17.47
2019-06-27T05:17:28.729Z,15.90
2019-06-27T05:19:57.541Z,16.57
2019-06-27T05:22:26.723Z,15.90
2019-06-27T05:24:55.813Z,15.20
2019-06-27T05:27:24.509Z,15.83
2019-06-27T05:30:08.171Z,16.67
2019-06-27T05:32:24.125Z,14.93
2019-06-27T05:34:53.016Z,15.23
2019-06-27T05:37:22.011Z,12.90
2019-06-27T05:39:51.220Z,13.13
2019-06-27T05:42:20.677Z,22.27
2019-06-27T05:44:49.453Z,12.70
2019-06-27T05:47:18.271Z,12.83
2019-06-27T05:49:46.941Z,12.60
2019-06-27T05:52:15.868Z,11.93
2019-06-27T05:54:44.838Z,11.90
2019-06-27T05:57:13.577Z,11.73
2019-06-27T05:59:43.330Z,11.70
2019-06-27T06:02:12.241Z,12.53
2019-06-27T06:04:41.318Z,11.43
2019-06-27T06:07:10.110Z,10.67
2019-06-27T06:09:38.915Z,10.60
2019-06-27T06:12:07.688Z,10.37
2019-06-27T06:14:36.416Z,11.07
2019-06-27T06:17:05.210Z,10.57
2019-06-27T06:19:34.012Z,9.50
2019-06-27T06:22:02.742Z,9.97
2019-06-27T06:24:31.535Z,10.10
2019-06-27T06:27:00.200Z,9.47
2019-06-27T06:29:28.861Z,8.90
2019-06-27T06:31:57.574Z,10.07
2019-06-27T06:34:26.416Z,9.57
2019-06-27T06:36:55.273Z,9.37
2019-06-27T06:39:24.194Z,9.40
2019-06-27T06:41:52.845Z,8.63
2019-06-27T06:44:21.987Z,8.77
2019-06-27T06:46:50.887Z,8.10
2019-06-27T06:49:20.588Z,8.97
2019-06-27T06:51:49.956Z,8.53
2019-06-27T06:54:18.878Z,9.57
2019-06-27T06:56:49.357Z,9.00
2019-06-27T06:59:18.259Z,8.50
2019-06-27T07:01:47.888Z,8.70
2019-06-27T07:04:16.758Z,8.80
2019-06-27T07:06:46.083Z,8.40
2019-06-27T07:09:16.132Z,8.47
2019-06-27T07:11:44.890Z,9.13
2019-06-27T07:14:13.762Z,8.80
2019-06-27T07:16:43.551Z,8.47
2019-06-27T07:19:12.467Z,9.47
2019-06-27T07:21:41.729Z,9.63
2019-06-27T07:24:10.692Z,9.23
2019-06-27T07:26:39.770Z,9.33
2019-06-27T07:29:08.512Z,8.00
2019-06-27T07:31:37.368Z,8.50
2019-06-27T07:34:06.116Z,8.10
2019-06-27T07:36:34.848Z,9.77
2019-06-27T07:39:05.448Z,9.43
2019-06-27T07:41:34.496Z,10.17
2019-06-27T07:44:04.691Z,11.20
2019-06-27T07:46:33.521Z,9.67
2019-06-27T07:49:02.424Z,8.93
2019-06-27T07:51:31.253Z,9.10
2019-06-27T07:54:01.418Z,9.73
2019-06-27T07:56:30.356Z,9.73
2019-06-27T07:58:59.361Z,9.57
2019-06-27T08:01:35.045Z,9.40
2019-06-27T08:03:59.512Z,9.70
2019-06-27T08:06:28.612Z,9.40
2019-06-27T08:08:57.307Z,9.70
2019-06-27T08:11:26.056Z,10.13
2019-06-27T08:13:54.850Z,10.10
2019-06-27T08:16:23.627Z,9.97
2019-06-27T08:18:53.929Z,9.93
2019-06-27T08:21:22.778Z,9.87
2019-06-27T08:23:51.669Z,10.37
2019-06-27T08:26:20.563Z,10.27
2019-06-27T08:28:49.211Z,9.43
2019-06-27T08:31:18.009Z,9.50
2019-06-27T08:33:46.991Z,9.20
2019-06-27T08:36:15.843Z,9.87
2019-06-27T08:38:44.632Z,9.53
2019-06-27T08:41:14.204Z,11.30
2019-06-27T08:43:43.384Z,11.17
2019-06-27T08:46:12.212Z,12.83
2019-06-27T08:48:40.995Z,11.17
2019-06-27T08:51:09.890Z,11.17
2019-06-27T08:53:39.377Z,11.47
2019-06-27T08:56:08.096Z,11.40
2019-06-27T08:58:37.254Z,11.63
2019-06-27T09:01:06.140Z,11.37
2019-06-27T09:03:35.669Z,10.90
2019-06-27T09:06:04.560Z,11.37
2019-06-27T09:08:33.419Z,10.43
2019-06-27T09:11:02.766Z,11.70
2019-06-27T09:13:31.653Z,11.30
2019-06-27T09:16:00.426Z,11.13
2019-06-27T09:18:29.442Z,10.60
2019-06-27T09:20:58.639Z,11.10
2019-06-27T09:23:27.631Z,10.90
2019-06-27T09:25:56.382Z,10.03
2019-06-27T09:28:25.623Z,10.67
2019-06-27T09:30:54.918Z,9.97
2019-06-27T09:33:24.022Z,10.13
2019-06-27T09:35:52.736Z,10.30
2019-06-27T09:38:21.383Z,11.37
2019-06-27T09:40:50.278Z,9.73
2019-06-27T09:43:19.372Z,9.77
2019-06-27T09:45:48.195Z,9.47
2019-06-27T09:48:17.017Z,10.00
2019-06-27T09:50:45.841Z,9.07
2019-06-27T09:53:15.046Z,8.67
2019-06-27T09:55:47.240Z,7.60
2019-06-27T09:58:14.566Z,8.10
2019-06-27T10:00:43.328Z,8.33
2019-06-27T10:03:12.150Z,8.20
2019-06-27T10:05:41.112Z,8.47
2019-06-27T10:08:09.916Z,8.40
2019-06-27T10:10:38.653Z,8.13
2019-06-27T10:13:07.344Z,8.20
2019-06-27T10:15:36.180Z,7.63
2019-06-27T10:18:04.980Z,6.67
2019-06-27T10:20:34.369Z,5.97
2019-06-27T10:23:03.485Z,6.07
2019-06-27T10:25:33.610Z,6.07
2019-06-27T10:28:02.490Z,5.87
2019-06-27T10:30:31.400Z,5.40
2019-06-27T10:33:00.598Z,5.53
2019-06-27T10:35:29.530Z,5.87
2019-06-27T10:37:58.368Z,6.10
2019-06-27T10:40:27.270Z,5.57
2019-06-27T10:42:56.132Z,6.50
2019-06-27T10:45:25.075Z,5.73
2019-06-27T10:47:54.001Z,5.30
2019-06-27T10:50:22.793Z,5.50
2019-06-27T10:52:51.718Z,5.43
2019-06-27T10:55:20.590Z,6.70
2019-06-27T10:57:49.707Z,5.20
2019-06-27T11:00:19.115Z,6.10
2019-06-27T11:02:48.003Z,6.70
2019-06-27T11:05:17.093Z,7.10
2019-06-27T11:07:45.953Z,6.37
2019-06-27T11:10:14.994Z,8.47
2019-06-27T11:12:45.121Z,6.30
2019-06-27T11:15:16.145Z,6.77
2019-06-27T11:17:45.088Z,6.23
2019-06-27T11:20:15.745Z,7.17
2019-06-27T11:22:44.783Z,6.57
2019-06-27T11:25:14.862Z,6.03
2019-06-27T11:27:43.649Z,7.50
2019-06-27T11:30:13.100Z,6.67
2019-06-27T11:32:42.073Z,6.27
2019-06-27T11:35:11.251Z,7.13
2019-06-27T11:37:40.072Z,7.07
2019-06-27T11:40:12.295Z,7.00
2019-06-27T11:42:40.424Z,7.43
2019-06-27T11:45:09.325Z,8.17
2019-06-27T11:47:38.068Z,8.07
2019-06-27T11:50:07.540Z,7.83
2019-06-27T11:52:36.324Z,7.03
2019-06-27T11:55:05.280Z,7.13
2019-06-27T11:57:34.048Z,7.67
2019-06-27T12:00:03.473Z,6.60
2019-06-27T12:02:32.302Z,6.67
2019-06-27T12:05:01.367Z,6.60
2019-06-27T12:07:31.059Z,7.30
2019-06-27T12:09:59.855Z,7.27
2019-06-27T12:12:28.829Z,8.23
2019-06-27T12:14:57.851Z,7.80
2019-06-27T12:17:26.698Z,8.43
2019-06-27T12:19:55.624Z,6.87
2019-06-27T12:22:24.549Z,6.40
2019-06-27T12:24:55.047Z,5.50
2019-06-27T12:27:24.749Z,6.43
2019-06-27T12:29:53.563Z,6.20
2019-06-27T12:32:22.745Z,5.83
2019-06-27T12:34:51.633Z,4.20
2019-06-27T12:37:20.739Z,4.10
2019-06-27T12:39:49.829Z,4.90
2019-06-27T12:42:31.896Z,4.23
2019-06-27T12:44:49.244Z,2.57
2019-06-27T12:47:18.145Z,3.17
2019-06-27T12:50:01.152Z,2.50
2019-06-27T12:52:17.289Z,3.27
2019-06-27T12:54:46.116Z,3.50
2019-06-27T12:57:15.045Z,3.10
2019-06-27T12:59:43.894Z,2.93
2019-06-27T13:02:12.873Z,2.90
2019-06-27T13:04:41.801Z,2.60
2019-06-27T13:07:11.015Z,2.60
2019-06-27T13:09:40.702Z,2.90
2019-06-27T13:12:09.508Z,5.47
2019-06-27T13:14:38.324Z,2.83
2019-06-27T13:17:07.493Z,4.13
2019-06-27T13:19:39.570Z,2.73
2019-06-27T13:22:06.883Z,3.07
2019-06-27T13:24:36.183Z,2.30
2019-06-27T13:27:05.318Z,2.67
2019-06-27T13:29:34.145Z,2.50
2019-06-27T13:32:02.938Z,2.10
2019-06-27T13:34:40.348Z,2.10
2019-06-27T13:37:02.365Z,2.30
2019-06-27T13:39:31.070Z,2.17
2019-06-27T13:41:59.852Z,2.10
2019-06-27T13:44:28.796Z,2.17
2019-06-27T13:46:57.682Z,1.80
2019-06-27T13:49:26.354Z,2.53
2019-06-27T13:51:55.219Z,1.43
2019-06-27T13:54:24.360Z,1.50
2019-06-27T13:56:53.190Z,1.40
2019-06-27T13:59:22.144Z,2.00
2019-06-27T14:01:50.857Z,1.30
2019-06-27T14:04:19.692Z,2.63
2019-06-27T14:06:48.517Z,1.70
2019-06-27T14:09:23.577Z,1.07
2019-06-27T14:11:47.729Z,1.10
2019-06-27T14:14:16.697Z,2.13
2019-06-27T14:16:45.685Z,1.33
2019-06-27T14:19:14.606Z,0.87
2019-06-27T14:21:43.710Z,1.33
2019-06-27T14:24:12.489Z,0.90
2019-06-27T14:26:41.728Z,1.63
2019-06-27T14:29:10.747Z,0.80
2019-06-27T14:31:39.464Z,2.20
2019-06-27T14:34:08.369Z,1.00
2019-06-27T14:36:37.356Z,1.30
2019-06-27T14:39:07.165Z,0.80
2019-06-27T14:41:35.952Z,0.87
2019-06-27T14:44:04.889Z,0.70
2019-06-27T14:46:37.154Z,2.90
2019-06-27T14:49:04.232Z,1.23
2019-06-27T14:51:33.575Z,2.23
2019-06-27T14:54:02.467Z,1.33
2019-06-27T14:56:31.494Z,0.97
2019-06-27T14:59:00.272Z,1.10
2019-06-27T15:01:30.227Z,1.43
2019-06-27T15:03:58.986Z,1.10
2019-06-27T15:06:27.943Z,1.20
2019-06-27T15:08:56.674Z,1.90
2019-06-27T15:11:26.395Z,1.20
2019-06-27T15:13:55.192Z,1.87
2019-06-27T15:16:24.102Z,1.00
2019-06-27T15:18:52.989Z,1.83
2019-06-27T15:21:21.888Z,1.20
2019-06-27T15:23:50.709Z,1.10
2019-06-27T15:26:19.757Z,1.70
2019-06-27T15:28:48.503Z,2.17
2019-06-27T15:31:17.372Z,1.17
2019-06-27T15:33:46.230Z,1.10
2019-06-27T15:36:15.006Z,1.30
2019-06-27T15:38:43.795Z,1.30
2019-06-27T15:41:12.622Z,1.40
2019-06-27T15:43:41.396Z,1.73
2019-06-27T15:46:10.160Z,1.70
2019-06-27T15:48:39.003Z,1.63
2019-06-27T15:51:07.872Z,1.00
2019-06-27T15:53:36.860Z,1.43
2019-06-27T15:56:05.646Z,1.17
2019-06-27T15:58:34.546Z,1.40
2019-06-27T16:01:03.448Z,2.07
2019-06-27T16:03:32.456Z,1.50
2019-06-27T16:06:09.492Z,1.50
2019-06-27T16:08:31.669Z,2.27
2019-06-27T16:11:00.784Z,1.97
2019-06-27T16:13:29.585Z,1.40
2019-06-27T16:15:58.452Z,3.17
2019-06-27T16:18:27.783Z,1.33
2019-06-27T16:20:56.544Z,1.77
2019-06-27T16:23:25.430Z,1.63
2019-06-27T16:25:54.184Z,3.03
2019-06-27T16:28:26.616Z,1.63
2019-06-27T16:30:53.427Z,1.70
2019-06-27T16:33:22.431Z,2.03
2019-06-27T16:35:51.228Z,1.63
2019-06-27T16:38:20.116Z,1.83
2019-06-27T16:40:49.002Z,1.90
2019-06-27T16:43:17.865Z,4.13
2019-06-27T16:45:46.863Z,2.00
2019-06-27T16:48:15.860Z,1.50
2019-06-27T16:50:44.775Z,1.07
2019-06-27T16:53:13.751Z,1.63
2019-06-27T16:55:42.449Z,1.37
2019-06-27T16:58:11.656Z,1.40
2019-06-27T17:00:40.960Z,1.60
2019-06-27T17:03:09.853Z,1.47
2019-06-27T17:05:40.044Z,1.47
2019-06-27T17:08:09.025Z,1.60
2019-06-27T17:10:38.091Z,3.30
2019-06-27T17:13:06.807Z,2.17
2019-06-27T17:15:36.057Z,1.90
2019-06-27T17:18:04.865Z,2.53
2019-06-27T17:20:33.713Z,1.57
2019-06-27T17:23:05.339Z,1.30
2019-06-27T17:25:33.252Z,1.63
2019-06-27T17:28:02.141Z,1.47
2019-06-27T17:30:31.302Z,1.87
2019-06-27T17:33:00.242Z,1.70
2019-06-27T17:35:29.216Z,1.30
2019-06-27T17:37:58.095Z,2.50
2019-06-27T17:40:26.882Z,2.03
2019-06-27T17:42:56.876Z,2.90
2019-06-27T17:45:26.588Z,2.70
2019-06-27T17:47:56.264Z,2.73
2019-06-27T17:50:25.337Z,2.83
2019-06-27T17:52:55.162Z,1.60
2019-06-27T17:55:24.257Z,1.60
2019-06-27T17:57:56.852Z,2.13
2019-06-27T18:00:26.038Z,2.33
2019-06-27T18:02:54.927Z,2.03
2019-06-27T18:05:24.021Z,2.07
2019-06-27T18:07:52.906Z,1.73
2019-06-27T18:10:22.025Z,7.47
2019-06-27T18:12:51.074Z,6.70
2019-06-27T18:15:21.348Z,2.00
2019-06-27T18:17:50.075Z,1.63
2019-06-27T18:20:19.394Z,2.03
2019-06-27T18:22:48.219Z,2.63
2019-06-27T18:25:17.167Z,1.50
2019-06-27T18:27:46.064Z,1.97
2019-06-27T18:30:15.579Z,1.70
2019-06-27T18:32:44.567Z,2.47
2019-06-27T18:35:14.021Z,1.87
2019-06-27T18:37:42.887Z,2.50
2019-06-27T18:40:11.988Z,3.00
2019-06-27T18:42:40.799Z,1.60
2019-06-27T18:45:09.948Z,2.17
2019-06-27T18:47:38.834Z,1.70
2019-06-27T18:50:08.521Z,1.93
2019-06-27T18:52:37.334Z,2.13
2019-06-27T18:55:07.958Z,2.00
2019-06-27T18:57:36.888Z,2.20
2019-06-27T19:00:07.939Z,2.53
2019-06-27T19:02:36.749Z,1.80
2019-06-27T19:05:07.664Z,2.77
2019-06-27T19:07:45.343Z,2.87
2019-06-27T19:10:08.380Z,2.40
2019-06-27T19:12:37.432Z,1.70
2019-06-27T19:15:08.425Z,3.30
2019-06-27T19:17:37.881Z,1.53
2019-06-27T19:20:22.517Z,1.50
2019-06-27T19:23:10.165Z,2.37
2019-06-27T19:25:40.864Z,2.80
2019-06-27T19:28:09.884Z,1.70
2019-06-27T19:30:38.644Z,1.70
2019-06-27T19:33:07.677Z,2.80
2019-06-27T19:35:36.424Z,2.87
2019-06-27T19:38:05.248Z,1.80
2019-06-27T19:40:34.290Z,2.00
2019-06-27T19:43:03.403Z,2.27
2019-06-27T19:45:32.537Z,2.00
2019-06-27T19:48:01.425Z,2.77
2019-06-27T19:50:30.426Z,1.83
2019-06-27T19:52:59.289Z,2.60
2019-06-27T19:55:28.309Z,2.13
2019-06-27T19:57:57.281Z,3.33
2019-06-27T20:00:26.579Z,3.33
2019-06-27T20:02:55.465Z,5.87
2019-06-27T20:05:24.530Z,1.87
2019-06-27T20:07:53.545Z,1.87
2019-06-27T20:10:23.501Z,4.33
2019-06-27T20:12:52.597Z,2.83
2019-06-27T20:15:22.905Z,2.53
2019-06-27T20:17:51.706Z,3.43
2019-06-27T20:20:20.910Z,3.90
2019-06-27T20:22:50.009Z,6.60
2019-06-27T20:25:18.810Z,15.43
2019-06-27T20:27:47.949Z,2.53
2019-06-27T20:30:17.882Z,5.07
2019-06-27T20:50:43.456Z,5.10
2019-06-27T20:53:12.574Z,4.23
2019-06-27T20:55:41.720Z,2.73
2019-06-27T20:58:10.748Z,3.20
2019-06-27T21:00:39.846Z,4.23
2019-06-27T21:03:08.935Z,5.77
2019-06-27T21:05:37.805Z,2.63
2019-06-27T21:08:06.722Z,7.80
2019-06-27T21:10:35.611Z,4.50
2019-06-27T21:13:04.527Z,3.50
2019-06-27T21:15:33.349Z,2.80
2019-06-27T21:18:02.517Z,2.60
2019-06-27T21:20:31.370Z,3.27
2019-06-27T21:23:00.386Z,3.87
2019-06-27T21:25:29.577Z,5.67
2019-06-27T21:27:58.672Z,4.57
2019-06-27T21:30:27.980Z,6.33
2019-06-27T21:32:56.754Z,2.50
2019-06-27T21:35:25.760Z,5.90
2019-06-27T21:37:54.632Z,3.60
2019-06-27T21:40:23.620Z,3.17
2019-06-27T21:42:52.458Z,2.47
2019-06-27T21:45:21.947Z,3.47
2019-06-27T21:47:52.537Z,2.53
2019-06-27T21:50:21.775Z,2.60
2019-06-27T21:52:51.581Z,2.50
2019-06-27T21:55:23.609Z,2.60
2019-06-27T21:57:53.153Z,2.47
2019-06-27T22:00:22.342Z,2.93
2019-06-27T22:02:51.366Z,3.77
2019-06-27T22:05:20.401Z,2.97
2019-06-27T22:07:53.162Z,5.07
2019-06-27T22:10:20.514Z,4.40
2019-06-27T22:12:49.584Z,3.43
2019-06-27T22:15:18.544Z,3.07
2019-06-27T22:17:47.368Z,3.20
2019-06-27T22:20:16.628Z,2.97
2019-06-27T22:22:45.534Z,2.93
2019-06-27T22:25:14.509Z,4.07
2019-06-27T22:27:43.444Z,4.47
2019-06-27T22:30:12.908Z,2.67
2019-06-27T22:32:41.820Z,3.27
2019-06-27T22:35:11.361Z,3.53
2019-06-27T22:37:39.585Z,3.17
2019-06-27T22:40:27.162Z,3.40
2019-06-27T22:43:13.924Z,3.33
2019-06-27T22:46:00.760Z,3.37
2019-06-27T22:48:29.063Z,3.00
2019-06-27T22:51:00.067Z,4.60
2019-06-27T22:53:36.449Z,3.43
2019-06-27T22:56:05.355Z,5.87
2019-06-27T22:58:34.564Z,6.47
2019-06-27T23:01:05.194Z,8.53
2019-06-27T23:03:34.126Z,8.43
2019-06-27T23:06:03.188Z,6.83
2019-06-27T23:08:32.074Z,4.30
2019-06-27T23:11:00.774Z,5.77
2019-06-27T23:13:29.599Z,3.63
2019-06-27T23:15:58.381Z,3.93
2019-06-27T23:18:27.231Z,6.73
2019-06-27T23:20:56.121Z,4.43
2019-06-27T23:23:25.833Z,2.73
2019-06-27T23:25:54.687Z,5.03
2019-06-27T23:28:23.458Z,4.53
2019-06-27T23:30:52.311Z,5.13
2019-06-27T23:33:21.090Z,6.37
2019-06-27T23:35:50.258Z,3.77
2019-06-27T23:38:19.189Z,3.40
2019-06-27T23:40:48.051Z,4.20
2019-06-27T23:43:16.835Z,4.63
2019-06-27T23:45:45.664Z,3.80
2019-06-27T23:48:14.682Z,4.60
2019-06-27T23:50:44.054Z,4.73
2019-06-27T23:53:12.760Z,4.00
2019-06-27T23:55:41.603Z,3.70
2019-06-27T23:58:10.485Z,4.60
